Saint Teresa, Florida
Current Conditions -  °F | °C
As of 12:53 AM on Friday 31 Oct 2014 (Local Time) from KTLH Reporting Station
Clear Clear  
Wind Chill: 47°   Ceiling: Unl
Heat Index: 47°   Visibility: 10mi
Dew Point: 41°   Wind: 3mph
Humidity: 80%   Direction: 310°NW
Pressure: 29.95"   Gusts: NA
Location:  30.1572°N, 84.5437°W
Report Text: KTLH 310453Z AUTO 31003KT 10SM CLR 08/05 A2995 RMK AO2 SLP141 T00830050 402440083 $
Loading
Personal Weather Stations






























Interactive Weather Map
Tropical Storm Tracking
New forecast layout! Learn more

10-Day Weather Forecast

Advertisements
Track Severe Weather on mobile